OPPS

Details ICAO OPPS (PEW)
Name OPPS Peshawar, Peshawar Intl Airport
Region Pakistan
Timezone Asia/Karachi (UTC+5.0)
Plans Departing 3
Arriving 2
Stats Elevation 1,158 ft / 353 m (AMSL)
Location 33.993911° 71.514581°
Runways 1
Magnetic Variation 2.835° E
Sunrise 2017-12-11 02:10:32 UTC / 2017-12-11 07:10:32 Local
Sunset 2017-12-11 12:06:35 UTC / 2017-12-11 17:06:35 Local
Advertisement - Login to hide

Runways

ID Width Length Bearing (true) Bearing (mag) Surface Threshold Offset Overrun Length
17 151 ft / 46 m 9,008 ft / 2,746 m 176.00° 173.16° Asphalt 0 ft / 0 m 791 ft / 241 m
35 151 ft / 46 m 9,008 ft / 2,746 m 356.00° 353.16° Asphalt 0 ft / 0 m 1,047 ft / 319 m

Map

Weather


0- 5 10 15 20 25 30 35+ Temperature / ° C

Clouds and Precipitation
Forecast for 2017-12-11 12:00 UTC. Updated 21 minutes ago

Ground ~20,000 ft ~40,000 ft Winds

METAR

OPPS 110900Z 18006KT 0800 RA FEW010 SCT030 BKN075 12/07 Q1015

TAF

Not found

Frequencies

Recorded 126.70 MHz Peshawar ATIS
Tower 122.90 MHz Peshawar Tower
Ground 118.30 MHz Peshawar Ground
Approach 125.60 MHz Peshawar Approach
Warning: Do not use this data for real-world aviation or navigation. No guarantee of current accuracy is given.